Time;durP1;ratioP1;P1;durP2;ratioP2;P2;SDS_P1;SDS_P2;PMS_P1;PMS_P2;Temp;Humidity;BMP_temperature;BMP_pressure;BME280_temperature;BME280_humidity;BME280_pressure;Samples;Min_cycle;Max_cycle;Signal;HPM_P1;HPM_P2
2022/09/21 00:00:21;;;;;;;;;;;;;;;12.19;100.00;101954.88;5036524;28;20051;-53
2022/09/21 00:02:46;;;;;;;2.95;1.95;;;;;;;12.15;100.00;101961.53;5038096;28;20357;-53
2022/09/21 00:05:12;;;;;;;2.92;1.20;;;;;;;12.11;100.00;101954.88;5038415;28;20043;-52
2022/09/21 00:07:37;;;;;;;2.72;1.40;;;;;;;12.04;100.00;101953.88;5042349;28;20065;-53
2022/09/21 00:10:03;;;;;;;1.35;1.00;;;;;;;12.02;100.00;101959.34;5038785;28;20040;-56
2022/09/21 00:12:30;;;;;;;1.52;1.00;;;;;;;12.00;100.00;101966.66;5040034;28;20029;-56
2022/09/21 00:14:56;;;;;;;2.78;1.33;;;;;;;12.01;100.00;101963.00;5043179;28;20113;-50
2022/09/21 00:17:22;;;;;;;2.35;0.85;;;;;;;12.03;100.00;101963.69;5036654;28;20071;-55
2022/09/21 00:19:47;;;;;;;4.93;1.27;;;;;;;12.02;100.00;101953.22;5033247;28;20029;-54
2022/09/21 00:22:13;;;;;;;3.65;1.92;;;;;;;12.00;100.00;101956.00;5036703;28;20059;-57
2022/09/21 00:24:38;;;;;;;4.63;1.25;;;;;;;11.98;100.00;101958.84;5036835;28;20048;-53
2022/09/21 00:27:03;;;;;;;2.42;1.10;;;;;;;11.97;100.00;101959.84;5042860;28;20114;-54
2022/09/21 00:29:29;;;;;;;1.95;0.73;;;;;;;11.95;100.00;101961.84;5038922;28;20348;-55
2022/09/21 00:31:54;;;;;;;9.88;1.42;;;;;;;11.94;100.00;101960.16;5042445;28;20057;-55
2022/09/21 00:34:19;;;;;;;0.70;0.70;;;;;;;11.94;100.00;101965.47;5041512;28;20065;-54
2022/09/21 00:36:45;;;;;;;1.92;1.10;;;;;;;11.94;100.00;101960.16;5041771;28;20022;-55
2022/09/21 00:39:10;;;;;;;2.20;1.40;;;;;;;11.96;100.00;101960.00;5039761;28;20070;-56
2022/09/21 00:41:35;;;;;;;1.30;1.10;;;;;;;11.97;100.00;101953.69;5040536;28;20287;-53
2022/09/21 00:44:23;;;;;;;2.55;2.13;;;;;;;11.96;100.00;101963.50;5037806;28;20032;-53
2022/09/21 00:46:52;;;;;;;1.67;0.95;;;;;;;11.94;100.00;101962.81;5046910;28;20021;-53
2022/09/21 00:49:18;;;;;;;2.15;1.67;;;;;;;11.93;100.00;101961.16;5034206;28;20025;-56
2022/09/21 00:51:46;;;;;;;3.97;1.52;;;;;;;11.94;100.00;101962.00;5035979;28;20196;-50
2022/09/21 00:54:18;;;;;;;2.22;1.50;;;;;;;11.93;100.00;101958.50;5038863;28;20037;-51
2022/09/21 00:56:44;;;;;;;1.77;0.90;;;;;;;11.90;100.00;101969.47;5035424;28;20045;-48
2022/09/21 00:59:12;;;;;;;3.35;1.20;;;;;;;11.87;100.00;101959.16;5036211;28;20025;-48
2022/09/21 01:01:38;;;;;;;3.22;1.27;;;;;;;11.87;100.00;101963.63;5040962;28;20103;-48
2022/09/21 01:04:05;;;;;;;1.45;0.77;;;;;;;11.85;100.00;101958.47;5045195;28;20484;-54
2022/09/21 01:06:33;;;;;;;3.00;0.90;;;;;;;11.85;100.00;101955.81;5046361;28;20029;-53
2022/09/21 01:09:00;;;;;;;1.67;1.00;;;;;;;11.86;100.00;101952.19;5038667;28;20613;-52
2022/09/21 01:11:28;;;;;;;3.65;1.30;;;;;;;11.86;100.00;101962.81;5039623;28;20033;-51
2022/09/21 01:14:12;;;;;;;1.58;0.60;;;;;;;11.85;100.00;101961.13;5041933;28;20403;-51
2022/09/21 01:16:46;;;;;;;5.10;1.17;;;;;;;11.85;100.00;101960.28;5045113;28;20285;-50
2022/09/21 01:19:30;;;;;;;2.53;0.88;;;;;;;11.83;100.00;101962.28;5040928;28;20139;-52
2022/09/21 01:22:14;;;;;;;1.38;1.08;;;;;;;11.82;100.00;101957.94;5038770;28;20037;-50
2022/09/21 01:24:39;;;;;;;2.55;1.23;;;;;;;11.81;100.00;101956.31;5039789;28;20043;-50
2022/09/21 01:27:34;;;;;;;1.85;0.70;;;;;;;11.81;100.00;101957.13;5036482;28;20037;-54
2022/09/21 01:30:12;;;;;;;4.20;1.95;;;;;;;11.81;100.00;101954.47;5042262;28;20509;-55
2022/09/21 01:32:43;;;;;;;1.95;1.40;;;;;;;11.82;100.00;101955.28;5038690;28;20147;-52
2022/09/21 01:35:15;;;;;;;3.28;1.50;;;;;;;11.81;100.00;101954.47;5039291;28;20029;-53
2022/09/21 01:37:46;;;;;;;2.30;1.17;;;;;;;11.81;100.00;101954.47;5040998;28;20044;-54
2022/09/21 01:40:20;;;;;;;2.17;0.82;;;;;;;11.79;100.00;101946.66;5038562;28;20380;-56
2022/09/21 01:42:48;;;;;;;1.27;0.73;;;;;;;11.78;100.00;101947.66;5042008;28;20032;-54
2022/09/21 01:45:19;;;;;;;6.00;0.75;;;;;;;11.77;100.00;101942.50;5036458;28;20088;-53
2022/09/21 01:47:48;;;;;;;1.85;0.95;;;;;;;11.73;100.00;101949.97;5039215;28;20044;-56
2022/09/21 01:50:16;;;;;;;3.33;1.02;;;;;;;11.74;100.00;101945.47;5046594;28;20046;-53
2022/09/21 01:52:48;;;;;;;1.27;0.85;;;;;;;11.74;100.00;101948.97;5037078;28;20187;-54
2022/09/21 01:55:49;;;;;;;1.65;0.95;;;;;;;11.75;100.00;101949.81;5042135;28;20039;-56
2022/09/21 01:58:33;;;;;;;1.95;0.85;;;;;;;11.73;100.00;101949.16;5031643;28;20152;-55
2022/09/21 02:00:59;;;;;;;8.10;1.27;;;;;;;11.70;100.00;101952.13;5043941;28;20033;-53
2022/09/21 02:03:45;;;;;;;1.48;0.80;;;;;;;11.70;100.00;101949.47;5039459;28;20034;-54
2022/09/21 02:06:11;;;;;;;3.30;0.77;;;;;;;11.71;100.00;101954.59;5038070;28;20033;-55
2022/09/21 02:08:37;;;;;;;1.10;0.98;;;;;;;11.70;100.00;101955.63;5028082;28;20034;-53
2022/09/21 02:11:04;;;;;;;1.67;1.27;;;;;;;11.70;100.00;101950.31;5036709;28;20029;-51
2022/09/21 02:13:33;;;;;;;0.85;0.60;;;;;;;11.69;100.00;101950.44;5043328;28;20053;-56
2022/09/21 02:16:09;;;;;;;1.38;0.55;;;;;;;11.67;100.00;101947.13;5044345;28;20053;-55
2022/09/21 02:19:11;;;;;;;1.05;0.70;;;;;;;11.68;100.00;101949.63;5042030;28;20043;-54
2022/09/21 02:22:04;;;;;;;3.20;0.77;;;;;;;11.69;100.00;101953.09;5040284;28;20037;-52
2022/09/21 02:24:33;;;;;;;0.70;0.70;;;;;;;11.69;100.00;101942.47;5042463;28;20060;-52
2022/09/21 02:27:09;;;;;;;2.97;1.38;;;;;;;11.70;100.00;101941.50;5042159;28;20496;-52
2022/09/21 02:30:27;;;;;;;1.33;0.68;;;;;;;11.71;100.00;101946.63;5036474;28;20037;-54
2022/09/21 02:33:16;;;;;;;0.73;0.50;;;;;;;11.71;100.00;101940.50;5028451;28;20047;-54
2022/09/21 02:35:45;;;;;;;0.73;0.47;;;;;;;11.67;100.00;101941.81;5046860;28;20037;-55
2022/09/21 02:38:20;;;;;;;1.15;1.05;;;;;;;11.66;100.00;101940.16;5033890;28;20025;-57
2022/09/21 02:41:04;;;;;;;1.73;0.93;;;;;;;11.66;100.00;101940.16;5035699;28;20482;-55
2022/09/21 02:43:38;;;;;;;0.90;0.85;;;;;;;11.66;100.00;101940.16;5044452;28;20029;-55
2022/09/21 02:46:10;;;;;;;2.72;0.70;;;;;;;11.65;100.00;101936.66;5036857;28;20541;-53
2022/09/21 02:48:45;;;;;;;1.38;1.25;;;;;;;11.64;100.00;101937.69;5043208;28;20079;-52
2022/09/21 02:51:18;;;;;;;3.30;0.52;;;;;;;11.64;100.00;101939.47;5041411;28;20033;-55
2022/09/21 02:53:46;;;;;;;1.50;0.70;;;;;;;11.62;100.00;101937.00;5043166;28;20606;-54
2022/09/21 02:56:12;;;;;;;1.23;1.13;;;;;;;11.60;100.00;101938.97;5046007;28;20116;-53
2022/09/21 02:58:44;;;;;;;2.78;1.00;;;;;;;11.62;100.00;101936.19;5036577;28;20216;-51
2022/09/21 03:01:11;;;;;;;0.50;0.38;;;;;;;11.61;100.00;101931.84;5039952;28;20034;-53
2022/09/21 03:03:36;;;;;;;1.52;0.85;;;;;;;11.58;100.00;101928.50;5038690;28;20283;-54
2022/09/21 03:06:02;;;;;;;1.95;1.05;;;;;;;11.57;100.00;101926.84;5043921;28;20501;-50
2022/09/21 03:08:29;;;;;;;0.50;0.47;;;;;;;11.57;100.00;101926.84;5036996;28;20037;-49
2022/09/21 03:10:56;;;;;;;2.15;0.77;;;;;;;11.56;100.00;101925.19;5033496;28;20067;-50
2022/09/21 03:13:21;;;;;;;0.60;0.45;;;;;;;11.55;100.00;101922.69;5040481;28;20406;-53
2022/09/21 03:15:46;;;;;;;0.80;0.80;;;;;;;11.54;100.00;101921.03;5036720;28;20021;-51
2022/09/21 03:18:12;;;;;;;4.03;0.65;;;;;;;11.52;100.00;101925.69;5034348;28;20021;-53
2022/09/21 03:20:39;;;;;;;3.30;0.60;;;;;;;11.51;100.00;101926.66;5042345;28;20026;-53
2022/09/21 03:23:06;;;;;;;1.00;0.43;;;;;;;11.49;100.00;101916.22;5038611;28;20052;-49
2022/09/21 03:25:32;;;;;;;1.33;0.98;;;;;;;11.50;100.00;101917.03;5040489;28;20108;-54
2022/09/21 03:27:57;;;;;;;1.63;0.65;;;;;;;11.49;100.00;101916.22;5045258;28;20115;-53
2022/09/21 03:30:25;;;;;;;0.55;0.45;;;;;;;11.49;100.00;101916.22;5035302;28;20345;-53
2022/09/21 03:32:52;;;;;;;3.35;0.60;;;;;;;11.49;100.00;101918.88;5039352;28;20463;-56
2022/09/21 03:35:19;;;;;;;0.43;0.40;;;;;;;11.48;100.00;101911.88;5047644;28;20056;-57
2022/09/21 03:37:47;;;;;;;1.30;0.43;;;;;;;11.49;100.00;101921.53;5037535;28;20041;-56
2022/09/21 03:40:14;;;;;;;2.45;0.57;;;;;;;11.50;100.00;101915.22;5042909;28;20061;-54
2022/09/21 03:42:40;;;;;;;0.93;0.68;;;;;;;11.48;100.00;101916.38;5042599;28;20025;-53
2022/09/21 03:45:08;;;;;;;0.63;0.50;;;;;;;11.47;100.00;101909.41;5040969;28;20033;-52
2022/09/21 03:47:33;;;;;;;1.75;0.40;;;;;;;11.46;100.00;101908.56;5044253;28;20033;-52
2022/09/21 03:49:59;;;;;;;0.60;0.38;;;;;;;11.49;100.00;101912.72;5031599;28;20032;-50
2022/09/21 03:52:25;;;;;;;1.00;0.28;;;;;;;11.48;100.00;101909.22;5034069;28;20041;-52
2022/09/21 03:54:50;;;;;;;1.40;0.60;;;;;;;11.50;100.00;101909.06;5040068;28;20474;-50
2022/09/21 03:57:15;;;;;;;3.50;0.40;;;;;;;11.49;100.00;101902.94;5034198;28;20036;-52
2022/09/21 03:59:41;;;;;;;0.57;0.22;;;;;;;11.48;100.00;101906.56;5037838;28;20028;-53
2022/09/21 04:02:06;;;;;;;1.60;0.63;;;;;;;11.48;100.00;101901.25;5037667;28;20053;-56
2022/09/21 04:04:32;;;;;;;0.70;0.70;;;;;;;11.48;100.00;101905.75;5044705;28;20033;-55
2022/09/21 04:06:58;;;;;;;1.10;0.80;;;;;;;11.47;100.00;101904.09;5040470;28;20128;-54
2022/09/21 04:09:23;;;;;;;0.95;0.73;;;;;;;11.45;100.00;101901.59;5034639;28;20218;-54
2022/09/21 04:11:49;;;;;;;2.00;0.43;;;;;;;11.43;100.00;101897.41;5038547;28;20337;-54
2022/09/21 04:14:14;;;;;;;2.60;0.40;;;;;;;11.41;100.00;101894.94;5039091;28;20045;-53
2022/09/21 04:16:40;;;;;;;0.60;0.55;;;;;;;11.40;100.00;101897.75;5041707;28;20025;-52
2022/09/21 04:19:05;;;;;;;0.65;0.20;;;;;;;11.38;100.00;101891.75;5031969;28;20029;-56
2022/09/21 04:21:31;;;;;;;4.70;0.65;;;;;;;11.36;100.00;101891.94;5036197;28;20033;-52
2022/09/21 04:23:57;;;;;;;0.95;0.73;;;;;;;11.35;100.00;101887.59;5041275;28;20036;-54
2022/09/21 04:26:28;;;;;;;1.38;0.85;;;;;;;11.36;100.00;101886.63;5033670;28;20075;-57
2022/09/21 04:28:54;;;;;;;1.65;0.47;;;;;;;11.37;100.00;101893.59;5040593;28;20509;-55
2022/09/21 04:31:20;;;;;;;1.10;0.85;;;;;;;11.39;100.00;101891.63;5028824;28;20057;-56
2022/09/21 04:33:50;;;;;;;0.80;0.40;;;;;;;11.40;100.00;101892.44;5040724;28;20028;-54
2022/09/21 04:36:17;;;;;;;0.98;0.75;;;;;;;11.42;100.00;101885.97;5045974;28;20174;-52
2022/09/21 04:38:42;;;;;;;0.60;0.40;;;;;;;11.40;100.00;101887.97;5032958;28;20033;-57
2022/09/21 04:41:07;;;;;;;0.98;0.57;;;;;;;11.40;100.00;101884.47;5033610;28;20371;-56
2022/09/21 04:43:33;;;;;;;0.85;0.50;;;;;;;11.39;100.00;101886.31;5038309;28;20103;-52
2022/09/21 04:46:04;;;;;;;0.75;0.40;;;;;;;11.40;100.00;101887.97;5035341;28;20053;-53
2022/09/21 04:48:29;;;;;;;0.93;0.50;;;;;;;11.39;100.00;101894.28;5037868;28;20040;-53
2022/09/21 04:50:55;;;;;;;1.98;0.57;;;;;;;11.38;100.00;101887.28;5037157;28;20037;-53
2022/09/21 04:53:20;;;;;;;0.90;0.50;;;;;;;11.36;100.00;101891.94;5033192;28;20030;-52
2022/09/21 04:55:46;;;;;;;0.65;0.43;;;;;;;11.34;100.00;101891.28;5038513;28;20116;-55
2022/09/21 04:58:11;;;;;;;0.55;0.38;;;;;;;11.31;100.00;101895.09;5035422;28;20212;-50
2022/09/21 05:00:36;;;;;;;1.10;0.32;;;;;;;11.29;100.00;101899.72;5038008;28;20048;-56
2022/09/21 05:03:02;;;;;;;0.50;0.45;;;;;;;11.27;100.00;101892.91;5038450;28;20108;-53
2022/09/21 05:05:27;;;;;;;1.35;0.47;;;;;;;11.25;100.00;101894.88;5036085;28;20025;-54
2022/09/21 05:07:53;;;;;;;2.15;0.80;;;;;;;11.23;100.00;101900.38;5043257;28;20123;-55
2022/09/21 05:10:18;;;;;;;1.13;0.50;;;;;;;11.24;100.00;101893.22;5034804;28;20113;-53
2022/09/21 05:12:43;;;;;;;0.98;0.73;;;;;;;11.24;100.00;101899.38;5038796;28;20028;-55
2022/09/21 05:15:12;;;;;;;0.68;0.43;;;;;;;11.24;100.00;101906.50;5041060;28;20351;-56
2022/09/21 05:17:37;;;;;;;0.38;0.32;;;;;;;11.22;100.00;101901.34;5036382;28;20029;-54
2022/09/21 05:20:03;;;;;;;0.60;0.52;;;;;;;11.21;100.00;101898.88;5032887;28;20056;-54
2022/09/21 05:22:28;;;;;;;0.40;0.40;;;;;;;11.20;100.00;101898.00;5034536;28;20032;-50
2022/09/21 05:24:54;;;;;;;3.00;0.68;;;;;;;11.20;100.00;101897.19;5041478;28;20194;-52
2022/09/21 05:27:20;;;;;;;1.38;0.52;;;;;;;11.20;100.00;101905.16;5028342;28;20459;-50
2022/09/21 05:29:45;;;;;;;1.92;1.10;;;;;;;11.20;100.00;101900.66;5029101;28;20157;-51
2022/09/21 05:32:36;;;;;;;2.78;0.55;;;;;;;11.21;100.00;101909.47;5050574;28;20032;-52
2022/09/21 05:35:11;;;;;;;1.48;0.38;;;;;;;11.20;100.00;101913.13;5038603;28;20037;-51
2022/09/21 05:37:57;;;;;;;0.40;0.20;;;;;;;11.18;100.00;101907.97;5034746;28;20029;-51
2022/09/21 05:40:23;;;;;;;1.58;0.50;;;;;;;11.14;100.00;101909.28;5032831;28;20116;-52
2022/09/21 05:42:49;;;;;;;1.85;0.68;;;;;;;11.14;100.00;101909.28;5028543;28;20055;-52
2022/09/21 05:45:16;;;;;;;0.85;0.50;;;;;;;11.15;100.00;101921.53;5033387;28;20053;-50
2022/09/21 05:47:59;;;;;;;2.30;0.82;;;;;;;11.12;100.00;101912.09;5030668;28;20029;-50
2022/09/21 05:50:53;;;;;;;2.35;0.85;;;;;;;11.14;100.00;101912.75;5027644;28;20040;-53
2022/09/21 05:53:42;;;;;;;7.70;1.23;;;;;;;11.14;100.00;101909.28;5024221;28;20190;-50
2022/09/21 05:56:10;;;;;;;3.63;0.52;;;;;;;11.13;100.00;101915.59;5031800;28;20390;-52
2022/09/21 05:58:54;;;;;;;0.60;0.55;;;;;;;11.12;100.00;101909.44;5031785;28;20033;-54
2022/09/21 06:01:19;;;;;;;1.02;0.45;;;;;;;11.13;100.00;101920.91;5028247;28;20029;-51
2022/09/21 06:03:47;;;;;;;4.13;1.17;;;;;;;11.12;100.00;101922.69;5029384;28;20035;-54
2022/09/21 06:06:12;;;;;;;0.50;0.30;;;;;;;11.12;100.00;101920.03;5026442;28;20049;-57
2022/09/21 06:08:38;;;;;;;0.50;0.50;;;;;;;11.12;100.00;101917.38;5034281;28;20036;-56
2022/09/21 06:11:04;;;;;;;0.63;0.32;;;;;;;11.15;100.00;101918.91;5030433;28;20126;-52
2022/09/21 06:13:29;;;;;;;1.42;0.52;;;;;;;11.17;100.00;101922.22;5033136;28;20041;-50
2022/09/21 06:15:55;;;;;;;0.22;0.22;;;;;;;11.19;100.00;101925.56;5032768;28;20544;-57
2022/09/21 06:18:20;;;;;;;1.27;0.75;;;;;;;11.19;100.00;101927.38;5030044;28;20379;-55
2022/09/21 06:20:46;;;;;;;1.60;0.52;;;;;;;11.21;100.00;101933.38;5038478;28;20446;-53
2022/09/21 06:23:12;;;;;;;3.28;0.55;;;;;;;11.22;100.00;101932.38;5029743;28;20406;-54
2022/09/21 06:25:38;;;;;;;0.65;0.30;;;;;;;11.24;100.00;101935.72;5029878;28;20032;-55
2022/09/21 06:28:05;;;;;;;1.58;0.35;;;;;;;11.25;100.00;101932.88;5031243;28;20033;-54
2022/09/21 06:30:33;;;;;;;3.53;0.60;;;;;;;11.28;100.00;101937.03;5022410;28;20367;-53
2022/09/21 06:33:03;;;;;;;1.08;0.88;;;;;;;11.30;100.00;101935.88;5024769;28;20025;-53
2022/09/21 06:35:31;;;;;;;2.53;0.50;;;;;;;11.32;100.00;101941.88;5042082;28;20024;-50
2022/09/21 06:38:00;;;;;;;1.17;0.60;;;;;;;11.35;100.00;101943.38;5042481;28;20527;-48
2022/09/21 06:40:27;;;;;;;4.88;1.15;;;;;;;11.39;100.00;101941.25;5039879;28;20024;-53
2022/09/21 06:42:58;;;;;;;2.47;0.50;;;;;;;11.43;100.00;101946.06;5028434;28;20037;-53
2022/09/21 06:45:24;;;;;;;1.20;0.50;;;;;;;11.45;100.00;101945.91;5026847;28;20029;-52
2022/09/21 06:47:50;;;;;;;1.35;0.60;;;;;;;11.46;100.00;101948.41;5033715;28;20026;-52
2022/09/21 06:50:15;;;;;;;3.65;1.00;;;;;;;11.49;100.00;101948.09;5038631;28;20034;-55
2022/09/21 06:52:40;;;;;;;1.30;0.65;;;;;;;11.51;100.00;101942.59;5034267;28;20017;-52
2022/09/21 06:55:07;;;;;;;3.72;0.80;;;;;;;11.53;100.00;101945.94;5040632;28;20061;-51
2022/09/21 06:57:33;;;;;;;1.48;0.55;;;;;;;11.56;100.00;101946.44;5040649;28;20029;-51
2022/09/21 06:59:59;;;;;;;2.20;0.47;;;;;;;11.60;100.00;101946.94;5033649;28;20029;-51
2022/09/21 07:02:24;;;;;;;1.13;0.30;;;;;;;11.63;100.00;101951.09;5040651;28;20038;-51
2022/09/21 07:04:49;;;;;;;0.75;0.63;;;;;;;11.65;100.00;101943.81;5045708;28;20059;-54
2022/09/21 07:07:15;;;;;;;0.93;0.85;;;;;;;11.68;100.00;101949.63;5031211;28;20067;-55
2022/09/21 07:09:40;;;;;;;0.82;0.68;;;;;;;11.73;100.00;101942.00;5017944;28;20059;-50
2022/09/21 07:12:06;;;;;;;5.65;0.77;;;;;;;11.76;100.00;101946.97;5036046;28;20109;-54
2022/09/21 07:14:32;;;;;;;0.70;0.70;;;;;;;11.80;100.00;101936.88;5035963;28;20453;-55
2022/09/21 07:16:57;;;;;;;0.52;0.32;;;;;;;11.83;100.00;101936.53;5034302;28;20036;-52
2022/09/21 07:19:22;;;;;;;0.65;0.50;;;;;;;11.87;100.00;101939.72;5034903;28;20029;-53
2022/09/21 07:21:48;;;;;;;2.50;0.90;;;;;;;11.90;100.00;101936.72;5036519;28;20747;-51
2022/09/21 07:24:14;;;;;;;3.15;0.57;;;;;;;11.94;100.00;101936.25;5036611;28;20103;-55
2022/09/21 07:26:39;;;;;;;1.85;0.75;;;;;;;11.99;100.00;101947.22;5035104;28;20027;-52
2022/09/21 07:29:05;;;;;;;0.80;0.77;;;;;;;12.04;100.00;101937.94;5039030;28;20037;-52
2022/09/21 07:31:30;;;;;;;4.25;1.08;;;;;;;12.10;100.00;101934.59;5042097;28;20021;-50
2022/09/21 07:33:57;;;;;;;1.52;0.70;;;;;;;12.17;100.00;101944.41;5031825;28;20375;-49
2022/09/21 07:36:23;;;;;;;1.58;1.02;;;;;;;12.23;100.00;101940.25;5044645;28;20028;-49
2022/09/21 07:38:48;;;;;;;3.58;0.57;;;;;;;12.30;100.00;101941.25;5036304;28;20025;-52
2022/09/21 07:41:14;;;;;;;1.38;0.82;;;;;;;12.34;100.00;101942.59;5044458;28;20529;-49
2022/09/21 07:43:40;;;;;;;2.67;0.80;;;;;;;12.40;100.00;101941.91;5038046;28;20112;-52
2022/09/21 07:46:08;;;;;;;3.80;0.88;;;;;;;12.47;100.00;101944.75;5043307;28;20113;-53
2022/09/21 07:48:33;;;;;;;1.95;0.88;;;;;;;12.53;100.00;101949.38;5043137;28;20123;-51
2022/09/21 07:51:07;;;;;;;2.63;0.93;;;;;;;12.60;100.00;101942.41;5048367;28;20032;-53
2022/09/21 07:53:34;;;;;;;1.08;0.70;;;;;;;12.63;100.00;101935.91;5055597;28;20347;-51
2022/09/21 07:56:03;;;;;;;1.30;0.60;;;;;;;12.71;100.00;101938.53;5048365;28;20029;-52
2022/09/21 08:01:14;;;;;;;1.55;0.90;;;;;;;12.85;100.00;101932.50;5047192;28;20036;-55
2022/09/21 08:03:39;;;;;;;0.68;0.68;;;;;;;12.95;100.00;101936.81;5037476;28;20022;-51
2022/09/21 08:06:05;;;;;;;1.75;0.70;;;;;;;13.02;100.00;101929.81;5036143;28;20132;-53
2022/09/21 08:08:31;;;;;;;1.70;0.73;;;;;;;13.09;100.00;101934.28;5049036;28;20065;-55
2022/09/21 08:11:01;;;;;;;1.85;0.52;;;;;;;13.19;100.00;101933.22;5037643;28;20060;-54
2022/09/21 08:13:27;;;;;;;2.28;1.23;;;;;;;13.24;100.00;101934.41;5043781;28;20497;-52
2022/09/21 08:15:59;;;;;;;3.83;1.10;;;;;;;13.34;100.00;101934.19;5048542;28;20037;-52
2022/09/21 08:18:26;;;;;;;2.30;1.02;;;;;;;13.39;100.00;101936.34;5036426;28;20112;-49
2022/09/21 08:20:56;;;;;;;2.60;1.20;;;;;;;13.45;100.00;101932.97;5034714;28;20022;-52
2022/09/21 08:23:22;;;;;;;3.47;0.70;;;;;;;13.54;100.00;101937.28;5040879;28;20047;-52
2022/09/21 08:25:47;;;;;;;2.67;0.93;;;;;;;13.59;100.00;101929.56;5040653;28;20033;-54
2022/09/21 08:28:13;;;;;;;1.75;0.80;;;;;;;13.66;100.00;101919.88;5036309;28;20143;-49
2022/09/21 08:30:39;;;;;;;3.97;1.15;;;;;;;13.73;100.00;101926.19;5046696;28;21602;-51
2022/09/21 08:33:05;;;;;;;1.75;1.10;;;;;;;13.77;100.00;101920.47;5043669;28;20037;-50
2022/09/21 08:35:31;;;;;;;1.80;1.02;;;;;;;13.75;100.00;101913.47;5038174;28;20048;-48
2022/09/21 08:37:57;;;;;;;4.03;1.33;;;;;;;13.73;100.00;101918.19;5034470;28;20034;-49
2022/09/21 08:40:22;;;;;;;6.55;1.35;;;;;;;13.69;100.00;101916.84;5043049;28;20450;-51
2022/09/21 08:43:00;;;;;;;0.68;0.63;;;;;;;14.11;100.00;101912.88;5037260;28;20029;-51
2022/09/21 08:45:32;;;;;;;1.33;1.00;;;;;;;14.40;100.00;101913.97;5042718;28;20037;-55
2022/09/21 08:48:01;;;;;;;6.47;1.83;;;;;;;14.54;100.00;101918.53;5043915;28;20479;-54
2022/09/21 08:50:40;;;;;;;2.17;2.00;;;;;;;14.69;100.00;101912.38;5033192;28;20030;-52
2022/09/21 08:53:17;;;;;;;4.78;2.38;;;;;;;14.93;100.00;101912.09;5044052;28;20033;-56
2022/09/21 08:55:42;;;;;;;2.35;1.67;;;;;;;15.29;100.00;101906.00;5037369;28;20033;-54
2022/09/21 08:58:26;;;;;;;3.25;1.98;;;;;;;15.59;100.00;101898.72;5040106;28;20035;-49
2022/09/21 09:01:18;;;;;;;8.00;2.03;;;;;;;15.73;100.00;101897.03;5041947;28;20033;-54
2022/09/21 09:03:58;;;;;;;3.08;1.77;;;;;;;15.87;100.00;101892.63;5047568;28;20029;-55
2022/09/21 09:06:46;;;;;;;4.13;1.67;;;;;;;16.04;100.00;101877.16;5043802;28;20510;-56
2022/09/21 09:09:18;;;;;;;2.55;1.50;;;;;;;16.27;100.00;101885.78;5027683;28;20041;-55
2022/09/21 09:12:17;;;;;;;4.15;2.08;;;;;;;16.60;100.00;101887.84;5038525;28;20032;-52
2022/09/21 09:15:16;;;;;;;4.22;2.13;;;;;;;16.91;100.00;101879.41;5038578;28;20072;-53
2022/09/21 09:17:58;;;;;;;2.05;1.23;;;;;;;17.17;100.00;101872.50;5035184;28;20493;-55
2022/09/21 09:20:32;;;;;;;7.47;2.60;;;;;;;17.35;100.00;101867.41;5033176;28;20063;-54
2022/09/21 09:23:16;;;;;;;2.28;1.38;;;;;;;17.36;100.00;101873.59;5039404;28;20033;-55
2022/09/21 09:25:45;;;;;;;3.35;2.30;;;;;;;17.51;100.00;101863.53;5039469;28;20044;-56
2022/09/21 09:28:28;;;;;;;3.63;1.55;;;;;;;17.75;100.00;101872.81;5036794;28;20491;-55
2022/09/21 09:31:05;;;;;;;4.13;1.33;;;;;;;17.87;100.00;101868.53;5043679;28;20036;-50
2022/09/21 09:33:56;;;;;;;1.70;1.60;;;;;;;17.93;100.00;101871.44;5032806;28;20028;-50
2022/09/21 09:36:27;;;;;;;2.10;1.20;;;;;;;18.08;100.00;101859.47;5029280;28;20041;-53
2022/09/21 09:39:00;;;;;;;3.20;1.70;;;;;;;18.20;100.00;101864.19;5031925;28;20041;-55
2022/09/21 09:42:07;;;;;;;2.70;1.45;;;;;;;18.24;100.00;101854.69;5028271;28;20025;-51
2022/09/21 09:45:04;;;;;;;3.42;1.20;;;;;;;18.35;100.00;101854.03;5030561;28;20034;-56
2022/09/21 09:47:52;;;;;;;1.35;1.20;;;;;;;18.43;100.00;101847.63;5036083;28;20573;-56
2022/09/21 09:50:27;;;;;;;1.45;1.27;;;;;;;18.56;100.00;101857.53;5040414;28;20032;-56
2022/09/21 09:53:08;;;;;;;3.22;1.25;;;;;;;18.60;100.00;101856.06;5041860;28;20029;-56
2022/09/21 09:55:41;;;;;;;2.20;1.45;;;;;;;18.66;100.00;101850.66;5036444;28;20541;-55
2022/09/21 09:58:18;;;;;;;2.08;1.27;;;;;;;18.62;100.00;101849.47;5038069;28;20040;-56
2022/09/21 10:00:46;;;;;;;1.88;1.05;;;;;;;18.65;100.00;101849.03;5043411;28;20533;-53
2022/09/21 10:03:30;;;;;;;0.98;0.80;;;;;;;18.79;100.00;101838.25;5039522;28;20386;-51
2022/09/21 10:05:55;;;;;;;2.60;1.13;;;;;;;18.85;100.00;101837.44;5031153;28;20068;-56
2022/09/21 10:08:58;;;;;;;3.28;1.27;;;;;;;18.91;100.00;101850.00;5034564;28;20061;-56
2022/09/21 10:11:35;;;;;;;3.00;1.10;;;;;;;18.74;100.00;101842.41;5018037;28;20037;-55
2022/09/21 10:14:08;;;;;;;1.77;1.42;;;;;;;18.69;100.00;101846.72;5029834;28;20078;-55
2022/09/21 10:16:40;;;;;;;3.15;1.23;;;;;;;18.69;100.00;101844.91;5031752;28;20034;-55
2022/09/21 10:19:17;;;;;;;1.45;1.00;;;;;;;18.84;100.00;101841.97;5042538;28;20358;-52
2022/09/21 10:21:44;;;;;;;1.30;0.82;;;;;;;18.90;100.00;101838.44;5043137;28;20506;-57
2022/09/21 10:24:23;;;;;;;2.10;1.20;;;;;;;19.03;100.00;101840.25;5036397;28;20467;-56
2022/09/21 10:27:03;;;;;;;0.88;0.68;;;;;;;19.12;100.00;101843.50;5043236;28;20370;-54
2022/09/21 10:29:40;;;;;;;1.45;0.93;;;;;;;19.15;100.00;101843.91;5040833;28;20102;-55
2022/09/21 10:32:11;;;;;;;2.22;0.88;;;;;;;19.16;100.00;101839.34;5038453;28;20028;-55
2022/09/21 10:34:39;;;;;;;2.13;0.90;;;;;;;19.14;100.00;101836.03;5041880;28;20035;-56
2022/09/21 10:37:27;;;;;;;1.27;1.05;;;;;;;19.11;100.00;101836.47;5043097;28;20032;-55
2022/09/21 10:39:53;;;;;;;1.42;0.88;;;;;;;19.12;100.00;101833.56;5038292;28;20482;-58
2022/09/21 10:42:19;;;;;;;2.80;0.90;;;;;;;19.09;100.00;101839.38;5042512;28;20032;-51
2022/09/21 10:44:45;;;;;;;0.75;0.50;;;;;;;19.07;100.00;101840.63;5035336;28;20057;-57
2022/09/21 10:47:31;;;;;;;0.98;0.57;;;;;;;19.09;100.00;101827.81;5039055;28;20551;-51
2022/09/21 10:49:59;;;;;;;0.57;0.50;;;;;;;19.15;100.00;101832.31;5043064;28;20044;-57
2022/09/21 10:52:55;;;;;;;1.75;1.13;;;;;;;19.15;100.00;101827.78;5041669;28;20043;-57
2022/09/21 10:55:23;;;;;;;0.40;0.20;;;;;;;19.19;100.00;101833.53;5042791;28;20095;-51
2022/09/21 10:57:50;;;;;;;0.35;0.10;;;;;;;19.12;100.00;101827.38;5040235;28;20412;-52
2022/09/21 11:00:24;;;;;;;0.20;0.20;;;;;;;19.10;100.00;101832.13;5038943;28;20033;-55
2022/09/21 11:02:50;;;;;;;0.30;0.30;;;;;;;19.03;100.00;101823.28;5046378;28;20053;-50
2022/09/21 11:05:43;;;;;;;0.47;0.05;;;;;;;18.96;100.00;101824.13;5044463;28;20557;-54
2022/09/21 11:08:48;;;;;;;0.22;0.00;;;;;;;18.91;100.00;101826.63;5037013;28;20139;-53
2022/09/21 11:11:22;;;;;;;0.43;0.40;;;;;;;19.02;100.00;101824.31;5032388;28;20041;-50
2022/09/21 11:14:06;;;;;;;1.98;0.75;;;;;;;19.09;100.00;101822.44;5039861;28;20136;-54
2022/09/21 11:16:37;;;;;;;0.20;0.17;;;;;;;19.16;100.00;101821.34;5047268;28;20095;-55
2022/09/21 11:19:05;;;;;;;;;;;;;;;19.13;100.00;101815.59;5039531;28;20421;-53
2022/09/21 11:21:39;;;;;;;1.88;0.50;;;;;;;19.21;100.00;101820.72;5047134;28;19917;-51
2022/09/21 11:24:42;;;;;;;0.20;0.10;;;;;;;19.25;100.00;101813.84;5040785;28;20055;-55
2022/09/21 11:27:36;;;;;;;0.30;0.17;;;;;;;19.25;100.00;101811.16;5035028;28;20091;-50
2022/09/21 11:30:09;;;;;;;1.23;0.30;;;;;;;19.19;100.00;101809.34;5041030;28;20048;-53
2022/09/21 11:32:47;;;;;;;0.75;0.60;;;;;;;19.12;100.00;101811.25;5043769;28;20048;-50
2022/09/21 11:35:21;;;;;;;0.30;0.22;;;;;;;19.17;100.00;101806.84;5041502;28;20074;-52
2022/09/21 11:38:04;;;;;;;1.75;0.50;;;;;;;19.14;100.00;101803.78;5032147;28;20036;-54